Time;durP1;ratioP1;P1;durP2;ratioP2;P2;SDS_P1;SDS_P2;PMS_P1;PMS_P2;Temp;Humidity;BMP_temperature;BMP_pressure;BME280_temperature;BME280_humidity;BME280_pressure;Samples;Min_cycle;Max_cycle;Signal;HPM_P1;HPM_P2
2022/10/25 00:00:49;;;;;;;16.27;7.53;;;;;;;14.77;90.16;95101.69;4880356;29;20727;-79
2022/10/25 00:03:16;;;;;;;18.03;7.30;;;;;;;14.83;90.25;95107.16;4879269;29;20244;-78
2022/10/25 00:05:44;;;;;;;14.83;8.17;;;;;;;14.81;90.22;95117.63;4883262;29;20205;-79
2022/10/25 00:08:11;;;;;;;13.03;7.67;;;;;;;14.67;90.45;95103.53;4883501;29;20197;-79
2022/10/25 00:10:38;;;;;;;16.60;7.77;;;;;;;14.77;90.42;95119.69;4882495;29;20231;-81
2022/10/25 00:13:06;;;;;;;13.93;6.93;;;;;;;14.73;90.42;95105.53;4880042;29;20201;-78
2022/10/25 00:15:34;;;;;;;17.40;7.87;;;;;;;14.73;90.43;95120.97;4883624;29;20197;-79
2022/10/25 00:18:01;;;;;;;12.40;6.97;;;;;;;14.74;90.23;95114.03;4881758;29;20207;-79
2022/10/25 00:20:28;;;;;;;11.67;7.57;;;;;;;14.73;90.28;95120.16;4882613;29;20222;-79
2022/10/25 00:22:56;;;;;;;18.63;7.97;;;;;;;14.72;90.25;95121.94;4882496;29;20213;-79
2022/10/25 00:25:23;;;;;;;17.50;7.43;;;;;;;14.72;90.47;95118.53;4886591;29;20201;-84
2022/10/25 00:27:50;;;;;;;13.93;7.23;;;;;;;14.70;90.42;95117.88;4886804;29;20193;-81
2022/10/25 00:30:17;;;;;;;15.03;8.17;;;;;;;14.68;90.54;95124.94;4887368;29;20653;-81
2022/10/25 00:32:44;;;;;;;13.17;7.40;;;;;;;14.64;90.50;95116.72;4886472;29;20211;-79
2022/10/25 00:35:11;;;;;;;12.90;7.40;;;;;;;14.52;90.31;95103.31;4887186;29;20209;-79
2022/10/25 00:37:38;;;;;;;13.70;8.30;;;;;;;14.65;90.60;95118.34;4883183;29;20332;-82
2022/10/25 00:40:07;;;;;;;16.03;7.73;;;;;;;14.60;90.48;95117.19;4880169;29;20193;-78
2022/10/25 00:42:34;;;;;;;13.97;7.07;;;;;;;14.63;90.48;95114.28;4879703;29;20786;-78
2022/10/25 00:45:02;;;;;;;16.83;8.40;;;;;;;14.62;90.43;95110.09;4883209;29;20221;-82
2022/10/25 00:47:48;;;;;;;15.97;7.60;;;;;;;14.57;90.65;95102.84;4893466;29;20208;-80
2022/10/25 00:50:22;;;;;;;15.53;7.63;;;;;;;14.58;90.54;95107.03;4880766;29;20700;-79
2022/10/25 00:52:52;;;;;;;14.93;7.70;;;;;;;14.41;90.49;95077.78;4879461;29;20196;-80
2022/10/25 00:55:24;;;;;;;16.17;7.33;;;;;;;14.57;90.66;95099.47;4884468;29;20196;-79
2022/10/25 00:57:56;;;;;;;14.60;7.37;;;;;;;14.51;90.68;95095.75;4897770;29;20197;-79
2022/10/25 01:00:23;;;;;;;14.23;7.43;;;;;;;14.53;90.56;95098.97;4897734;29;20196;-79
2022/10/25 01:02:50;;;;;;;17.57;8.17;;;;;;;14.52;90.51;95099.94;4897504;29;20193;-80
2022/10/25 01:05:18;;;;;;;14.87;7.63;;;;;;;14.45;90.56;95089.38;4899708;29;20228;-80
2022/10/25 01:07:46;;;;;;;15.43;7.80;;;;;;;14.43;90.78;95085.38;4888769;29;20204;-82
2022/10/25 01:10:13;;;;;;;16.57;7.77;;;;;;;14.35;90.58;95070.69;4878858;29;20233;-80
2022/10/25 01:12:42;;;;;;;14.53;7.43;;;;;;;14.48;90.54;95085.72;4878689;29;20208;-78
2022/10/25 01:15:11;;;;;;;16.70;7.50;;;;;;;14.43;90.69;95088.75;4879023;29;20200;-80
2022/10/25 01:17:50;;;;;;;10.90;6.90;;;;;;;14.41;90.70;95095.00;4878774;29;20284;-79
2022/10/25 01:20:51;;;;;;;17.17;7.57;;;;;;;14.38;90.57;95088.41;4878841;29;20220;-81
2022/10/25 01:23:39;;;;;;;14.83;7.00;;;;;;;14.42;90.53;95096.59;4840726;29;20198;-80
2022/10/25 01:26:46;;;;;;;14.43;7.27;;;;;;;14.40;90.69;95096.75;4839676;29;20710;-81
2022/10/25 01:29:59;;;;;;;14.80;7.27;;;;;;;14.36;90.69;95085.16;4749686;30;20228;-80
2022/10/25 01:32:38;;;;;;;15.17;6.83;;;;;;;14.35;90.79;95091.25;4696863;30;20200;-79
2022/10/25 01:35:13;;;;;;;12.83;7.47;;;;;;;14.34;90.87;95094.78;4696078;30;20669;-79
2022/10/25 01:37:51;;;;;;;12.97;6.63;;;;;;;14.26;90.53;95082.69;4696533;30;20250;-78
2022/10/25 01:40:25;;;;;;;13.63;8.17;;;;;;;14.13;90.69;95061.69;4696689;30;20600;-80
2022/10/25 01:43:00;;;;;;;16.67;7.60;;;;;;;14.30;90.79;95086.56;4696550;30;20216;-79
2022/10/25 01:45:30;;;;;;;9.57;6.50;;;;;;;14.29;90.80;95079.81;4696682;30;20239;-78
2022/10/25 01:48:05;;;;;;;16.47;7.00;;;;;;;14.26;90.66;95081.88;4696227;30;20335;-80
2022/10/25 01:50:36;;;;;;;16.00;7.67;;;;;;;14.27;90.76;95086.06;4696737;30;20648;-80
2022/10/25 01:53:02;;;;;;;14.20;8.83;;;;;;;14.26;90.66;95077.53;4696612;30;20207;-81
2022/10/25 01:55:35;;;;;;;18.23;7.60;;;;;;;14.23;90.71;95074.44;4696831;30;20215;-79
2022/10/25 01:58:13;;;;;;;20.33;7.90;;;;;;;14.18;90.87;95063.81;4696789;30;20204;-78
2022/10/25 02:00:58;;;;;;;12.77;7.70;;;;;;;14.23;90.59;95074.44;4711745;30;20591;-80
2022/10/25 02:03:33;;;;;;;13.40;7.07;;;;;;;14.17;90.52;95064.78;4713400;30;20205;-81
2022/10/25 02:06:13;;;;;;;13.97;7.33;;;;;;;14.04;90.59;95053.13;4757402;29;20196;-82
2022/10/25 02:08:46;;;;;;;14.50;7.03;;;;;;;14.17;90.74;95080.22;4863324;29;20558;-80
2022/10/25 02:11:21;;;;;;;12.60;6.83;;;;;;;14.16;90.83;95076.84;4877537;29;20232;-79
2022/10/25 02:13:58;;;;;;;11.63;6.47;;;;;;;14.15;90.71;95075.19;4877909;29;20665;-79
2022/10/25 02:16:27;;;;;;;11.73;6.67;;;;;;;14.04;90.78;95060.81;4877533;29;20578;-79
2022/10/25 02:18:59;;;;;;;14.27;7.00;;;;;;;14.09;90.89;95069.84;4877912;29;20216;-79
2022/10/25 02:21:28;;;;;;;17.13;7.47;;;;;;;13.98;90.52;95061.41;4877698;29;20198;-80
2022/10/25 02:23:58;;;;;;;14.63;6.87;;;;;;;13.99;90.62;95064.81;4877622;29;20229;-81
2022/10/25 02:26:26;;;;;;;17.63;7.50;;;;;;;14.01;90.71;95070.59;4877827;29;20197;-80
2022/10/25 02:28:54;;;;;;;16.37;6.73;;;;;;;14.08;90.65;95078.53;4878132;29;20185;-80
2022/10/25 02:31:23;;;;;;;13.60;6.77;;;;;;;14.05;90.75;95072.72;4877508;29;20224;-79
2022/10/25 02:33:52;;;;;;;13.20;6.63;;;;;;;14.05;90.63;95077.06;4877637;29;20215;-81
2022/10/25 02:36:22;;;;;;;9.13;5.90;;;;;;;14.03;90.71;95068.66;4878020;29;20670;-79
2022/10/25 02:38:50;;;;;;;12.23;6.17;;;;;;;14.01;90.62;95061.13;4878342;29;20185;-81
2022/10/25 02:41:18;;;;;;;13.00;6.47;;;;;;;13.96;90.74;95057.38;4877379;29;20634;-81
2022/10/25 02:43:45;;;;;;;11.87;5.57;;;;;;;13.99;90.47;95068.19;4879232;29;20193;-82
2022/10/25 02:46:14;;;;;;;14.20;6.87;;;;;;;13.97;90.68;95070.09;4889159;29;20641;-78
2022/10/25 02:48:42;;;;;;;12.20;6.30;;;;;;;13.93;90.50;95070.53;4881778;29;20201;-80
2022/10/25 02:51:11;;;;;;;13.97;6.77;;;;;;;13.84;90.57;95051.66;4878390;29;20200;-81
2022/10/25 02:53:39;;;;;;;11.93;7.00;;;;;;;13.93;90.64;95062.81;4877878;29;20201;-78
2022/10/25 02:56:09;;;;;;;12.07;6.10;;;;;;;13.92;90.56;95066.34;4889694;29;20586;-80
2022/10/25 02:58:38;;;;;;;14.10;6.70;;;;;;;13.86;90.47;95065.19;4895883;29;20200;-78
2022/10/25 03:01:06;;;;;;;12.27;6.00;;;;;;;13.83;90.78;95059.53;4895978;29;20567;-78
2022/10/25 03:03:33;;;;;;;15.67;7.03;;;;;;;13.84;90.68;95063.72;4878168;29;20205;-79
2022/10/25 03:05:59;;;;;;;13.90;6.07;;;;;;;13.81;90.75;95063.03;4877347;29;20236;-79
2022/10/25 03:08:27;;;;;;;10.13;6.80;;;;;;;13.84;90.57;95061.94;4877254;29;20189;-80
2022/10/25 03:10:55;;;;;;;14.07;6.47;;;;;;;13.78;90.58;95065.94;4877275;29;20743;-80
2022/10/25 03:13:23;;;;;;;10.87;6.13;;;;;;;13.78;90.68;95054.84;4877512;29;20212;-79
2022/10/25 03:15:49;;;;;;;12.37;7.07;;;;;;;13.75;90.71;95048.22;4877267;29;20239;-79
2022/10/25 03:18:16;;;;;;;13.87;6.47;;;;;;;13.79;90.71;95061.59;4877084;29;20209;-79
2022/10/25 03:20:43;;;;;;;11.50;5.87;;;;;;;13.74;90.60;95056.09;4877446;29;20204;-78
2022/10/25 03:23:11;;;;;;;9.07;6.47;;;;;;;13.76;90.74;95065.25;4876744;29;20193;-80
2022/10/25 03:25:38;;;;;;;12.60;6.67;;;;;;;13.76;90.50;95069.59;4877449;29;20624;-79
2022/10/25 03:28:06;;;;;;;9.40;6.40;;;;;;;13.67;90.74;95052.50;4876829;29;20197;-78
2022/10/25 03:30:33;;;;;;;9.13;6.03;;;;;;;13.69;90.54;95059.09;4878012;29;20207;-79
2022/10/25 03:33:00;;;;;;;11.17;6.10;;;;;;;13.73;90.54;95064.72;4877292;29;20197;-78
2022/10/25 03:35:28;;;;;;;13.33;6.00;;;;;;;13.73;90.72;95072.44;4877591;29;20201;-79
2022/10/25 03:37:54;;;;;;;13.73;6.37;;;;;;;13.71;90.70;95064.88;4878372;29;20197;-79
2022/10/25 03:40:21;;;;;;;13.60;5.90;;;;;;;13.68;90.71;95064.38;4877372;29;20219;-78
2022/10/25 03:42:48;;;;;;;10.80;6.47;;;;;;;13.71;90.80;95069.22;4877207;29;20201;-80
2022/10/25 03:45:17;;;;;;;9.83;6.57;;;;;;;13.69;90.80;95066.00;4877055;29;20221;-79
2022/10/25 03:47:44;;;;;;;15.37;6.43;;;;;;;13.68;90.72;95065.19;4877060;29;20655;-80
2022/10/25 03:50:11;;;;;;;13.83;6.50;;;;;;;13.67;90.73;95061.00;4876707;29;20193;-80
2022/10/25 03:52:38;;;;;;;12.33;6.93;;;;;;;13.62;90.65;95058.06;4876923;29;20602;-78
2022/10/25 03:55:06;;;;;;;11.63;6.57;;;;;;;13.63;90.74;95066.59;4876677;29;20200;-78
2022/10/25 03:57:33;;;;;;;10.03;6.53;;;;;;;13.63;90.78;95056.31;4877269;29;20201;-79
2022/10/25 03:59:59;;;;;;;13.17;6.47;;;;;;;13.62;90.63;95058.06;4879752;29;20551;-78
2022/10/25 04:02:28;;;;;;;14.97;6.73;;;;;;;13.45;90.42;95035.75;4881284;29;20205;-82
2022/10/25 04:04:55;;;;;;;11.10;6.90;;;;;;;13.61;90.66;95063.38;4881922;29;20335;-80
2022/10/25 04:07:22;;;;;;;10.30;6.60;;;;;;;13.51;90.56;95048.00;4868655;29;20213;-80
2022/10/25 04:09:48;;;;;;;11.23;6.43;;;;;;;13.59;90.71;95062.69;4867714;29;20237;-80
2022/10/25 04:12:15;;;;;;;11.70;6.53;;;;;;;13.57;90.71;95060.28;4869617;29;20617;-79
2022/10/25 04:14:43;;;;;;;12.13;6.53;;;;;;;13.54;90.57;95047.72;4871608;29;20211;-83
2022/10/25 04:17:09;;;;;;;13.87;6.77;;;;;;;13.46;90.78;95038.16;4883737;29;20198;-78
2022/10/25 04:19:38;;;;;;;16.63;7.83;;;;;;;13.54;90.86;95056.22;4883594;29;20223;-82
2022/10/25 04:22:04;;;;;;;12.43;6.93;;;;;;;13.53;90.87;95058.94;4868255;29;20193;-83
2022/10/25 04:24:31;;;;;;;21.00;8.63;;;;;;;13.52;90.78;95049.63;4863835;29;20217;-79
2022/10/25 04:26:58;;;;;;;14.07;7.43;;;;;;;13.52;90.84;95054.78;4867814;29;20605;-81
2022/10/25 04:29:25;;;;;;;19.80;7.27;;;;;;;13.50;90.97;95047.19;4868030;29;20197;-80
2022/10/25 04:31:52;;;;;;;15.00;7.40;;;;;;;13.50;90.93;95049.75;4882022;29;20189;-77
2022/10/25 04:34:19;;;;;;;12.20;7.40;;;;;;;13.46;91.02;95061.28;4885777;29;20201;-81
2022/10/25 04:36:47;;;;;;;21.07;8.17;;;;;;;13.49;90.92;95061.00;4881999;29;20196;-79
2022/10/25 04:39:14;;;;;;;14.57;6.93;;;;;;;13.50;90.88;95066.94;4891956;29;20201;-76
2022/10/25 04:41:40;;;;;;;9.83;6.77;;;;;;;13.49;91.02;95067.91;4883276;29;20589;-78
2022/10/25 04:44:07;;;;;;;12.17;7.53;;;;;;;13.48;90.80;95066.31;4892725;29;20197;-79
2022/10/25 04:46:34;;;;;;;21.80;7.90;;;;;;;13.48;91.00;95067.09;4866537;29;20237;-78
2022/10/25 04:49:01;;;;;;;12.83;7.40;;;;;;;13.49;91.07;95067.91;4861996;29;20201;-81
2022/10/25 04:51:28;;;;;;;12.23;7.40;;;;;;;13.47;90.98;95068.06;4879710;29;20201;-79
2022/10/25 04:53:56;;;;;;;17.33;7.33;;;;;;;13.48;90.90;95068.88;4881253;29;20201;-82
2022/10/25 04:56:23;;;;;;;15.77;7.50;;;;;;;13.28;90.86;95040.72;4882063;29;20205;-85
2022/10/25 04:58:50;;;;;;;11.53;6.47;;;;;;;13.51;91.37;95065.97;4882139;29;20216;-85
2022/10/25 05:01:18;;;;;;;7.93;5.73;;;;;;;13.78;100.00;95049.69;4882121;29;20201;-87
2022/10/25 05:03:45;;;;;;;10.73;7.60;;;;;;;14.05;100.00;95036.72;4881921;29;20192;-85
2022/10/25 05:06:15;;;;;;;17.90;7.80;;;;;;;14.39;100.00;95074.56;4874313;29;20216;-88
2022/10/25 05:08:45;;;;;;;24.50;6.63;;;;;;;14.45;100.00;95070.56;4880488;29;20192;-83
2022/10/25 05:11:18;;;;;;;9.47;6.83;;;;;;;14.46;100.00;95061.88;4881160;29;20237;-80
2022/10/25 05:13:45;;;;;;;15.17;7.33;;;;;;;14.30;99.85;95031.75;4884183;29;20196;-79
2022/10/25 05:16:16;;;;;;;12.97;7.07;;;;;;;14.45;98.15;95048.22;4882549;29;20197;-82
2022/10/25 05:18:44;;;;;;;11.93;6.97;;;;;;;14.55;96.66;95073.91;4888925;29;20193;-85
2022/10/25 05:21:12;;;;;;;17.13;7.67;;;;;;;14.51;95.84;95060.50;4894229;29;20209;-82
2022/10/25 05:23:40;;;;;;;17.67;8.00;;;;;;;14.60;94.77;95069.09;4889072;29;20201;-82
2022/10/25 05:26:10;;;;;;;16.33;7.37;;;;;;;14.59;94.41;95070.03;4896279;29;20229;-85
2022/10/25 05:28:40;;;;;;;15.53;7.37;;;;;;;14.67;93.87;95080.38;4893003;29;20211;-86
2022/10/25 05:31:07;;;;;;;14.90;7.70;;;;;;;14.71;93.36;95080.88;4881567;29;20693;-82
2022/10/25 05:33:34;;;;;;;14.47;7.47;;;;;;;14.75;93.07;95087.34;4879377;29;20209;-82
2022/10/25 05:36:05;;;;;;;11.70;7.33;;;;;;;14.73;92.82;95081.53;4879450;29;20201;-89
2022/10/25 05:38:32;;;;;;;16.63;8.50;;;;;;;14.85;92.47;95100.09;4878896;29;20189;-81
2022/10/25 05:41:00;;;;;;;17.77;9.07;;;;;;;14.90;92.21;95103.84;4878680;29;20201;-80
2022/10/25 05:43:29;;;;;;;16.83;8.30;;;;;;;14.73;91.93;95072.06;4879389;29;20217;-80
2022/10/25 05:46:04;;;;;;;18.97;8.87;;;;;;;15.01;91.85;95106.13;4879513;29;20233;-83
2022/10/25 05:48:32;;;;;;;23.20;9.37;;;;;;;15.11;91.37;95118.06;4879858;29;20200;-81
2022/10/25 05:51:15;;;;;;;16.57;8.47;;;;;;;14.97;91.18;95086.78;4879506;29;20193;-83
2022/10/25 05:53:43;;;;;;;18.07;9.30;;;;;;;15.24;90.99;95123.59;4883544;29;20704;-84
2022/10/25 05:56:11;;;;;;;13.57;8.47;;;;;;;15.30;90.81;95120.41;4889896;29;20201;-82
2022/10/25 05:58:38;;;;;;;18.13;8.23;;;;;;;15.47;90.79;95139.31;4885334;29;20276;-80
2022/10/25 06:01:07;;;;;;;16.90;9.23;;;;;;;15.36;90.78;95101.75;4881854;29;20592;-82
2022/10/25 06:03:34;;;;;;;19.30;9.67;;;;;;;15.73;90.76;95141.81;4879389;29;20204;-84
2022/10/25 06:06:01;;;;;;;15.10;9.13;;;;;;;15.88;90.69;95140.22;4878466;29;20739;-81
2022/10/25 06:08:29;;;;;;;15.40;9.07;;;;;;;15.99;90.71;95129.63;4878223;29;20284;-82
2022/10/25 06:11:00;;;;;;;22.70;9.73;;;;;;;16.17;90.94;95132.03;4878011;29;20348;-85
2022/10/25 06:13:27;;;;;;;16.67;9.57;;;;;;;16.56;92.17;95144.28;4878491;29;20197;-84
2022/10/25 06:15:54;;;;;;;16.23;9.63;;;;;;;16.87;93.86;95143.59;4878961;29;20189;-83
2022/10/25 06:18:22;;;;;;;16.77;10.10;;;;;;;17.35;96.16;95141.84;4879210;29;20201;-81
2022/10/25 06:20:49;;;;;;;19.40;10.90;;;;;;;17.83;98.17;95140.81;4878680;29;20196;-83
2022/10/25 06:23:16;;;;;;;23.37;10.87;;;;;;;18.34;99.90;95146.28;4878260;29;20194;-84
2022/10/25 06:25:43;;;;;;;20.17;10.20;;;;;;;18.89;100.00;95134.78;4878610;29;20235;-83
2022/10/25 06:28:10;;;;;;;22.43;10.97;;;;;;;19.45;100.00;95137.72;4878498;29;20232;-84
2022/10/25 06:30:37;;;;;;;23.33;11.70;;;;;;;20.04;100.00;95134.19;4878270;29;20193;-81
2022/10/25 06:33:04;;;;;;;20.87;10.87;;;;;;;20.63;100.00;95138.31;4878201;29;20185;-82
2022/10/25 06:35:35;;;;;;;22.83;11.10;;;;;;;21.22;100.00;95124.88;4877666;29;20200;-81
2022/10/25 06:38:02;;;;;;;23.73;10.50;;;;;;;21.85;99.84;95135.97;4877803;29;20189;-86
2022/10/25 06:40:28;;;;;;;24.08;9.65;;;;;;;22.46;98.70;95135.09;4878633;29;20193;-86
2022/10/25 06:42:56;;;;;;;19.77;10.20;;;;;;;22.91;97.13;95124.84;4878497;29;20665;-84
2022/10/25 06:45:23;;;;;;;23.23;9.45;;;;;;;23.50;95.47;95142.94;4879424;29;20224;-82
2022/10/25 06:47:50;;;;;;;22.63;9.48;;;;;;;23.89;93.96;95130.75;4879689;29;20221;-81
2022/10/25 06:50:17;;;;;;;20.38;9.75;;;;;;;24.42;92.60;95140.09;4878745;29;20197;-83
2022/10/25 06:52:45;;;;;;;19.92;10.00;;;;;;;24.86;90.92;95148.78;4878100;29;20203;-83
2022/10/25 06:55:12;;;;;;;14.52;8.57;;;;;;;25.24;89.34;95146.00;4879303;29;20197;-82
2022/10/25 06:57:39;;;;;;;26.80;9.63;;;;;;;25.55;87.70;95134.59;4877851;29;20201;-85
2022/10/25 07:00:07;;;;;;;21.38;8.55;;;;;;;25.96;86.39;95144.38;4877896;29;20225;-86
2022/10/25 07:02:34;;;;;;;18.17;10.35;;;;;;;26.25;84.85;95139.31;4877766;29;20280;-82
2022/10/25 07:05:01;;;;;;;17.00;8.85;;;;;;;26.58;83.64;95143.31;4877832;29;20201;-87
2022/10/25 07:07:28;;;;;;;18.70;9.25;;;;;;;26.86;82.55;95137.41;4877732;29;20212;-82
2022/10/25 07:09:56;;;;;;;16.60;8.63;;;;;;;27.21;81.45;95138.22;4878007;29;20229;-85
2022/10/25 07:12:23;;;;;;;14.73;7.88;;;;;;;27.47;80.17;95133.47;4878865;29;20193;-88
2022/10/25 07:14:50;;;;;;;17.05;8.73;;;;;;;27.78;79.30;95134.09;4879264;29;20192;-83
2022/10/25 07:17:16;;;;;;;25.63;9.05;;;;;;;28.08;77.97;95133.88;4879461;29;20676;-83
2022/10/25 07:19:43;;;;;;;20.80;8.68;;;;;;;28.44;76.89;95146.59;4880471;29;20193;-86
2022/10/25 07:22:14;;;;;;;21.67;8.65;;;;;;;28.55;76.07;95123.09;4884656;29;20204;-88
2022/10/25 07:24:41;;;;;;;18.27;8.25;;;;;;;28.91;74.86;95135.75;4881441;29;20193;-84
2022/10/25 07:27:09;;;;;;;21.42;9.45;;;;;;;29.08;74.15;95117.31;4886279;29;20228;-83
2022/10/25 07:29:36;;;;;;;15.18;9.50;;;;;;;29.29;73.29;95125.50;4895391;29;20204;-79
2022/10/25 07:32:03;;;;;;;17.67;9.50;;;;;;;29.32;72.16;95107.38;4894534;29;20189;-80
2022/10/25 07:34:30;;;;;;;19.45;9.60;;;;;;;29.68;71.40;95136.81;4894216;29;20189;-82
2022/10/25 07:36:57;;;;;;;18.55;9.07;;;;;;;29.65;70.62;95097.75;4897000;29;20186;-84
2022/10/25 07:39:24;;;;;;;16.83;8.73;;;;;;;29.98;69.94;95128.44;4888362;29;20208;-83
2022/10/25 07:41:50;;;;;;;20.17;9.40;;;;;;;30.13;68.96;95136.47;4880611;29;20197;-85
2022/10/25 07:44:19;;;;;;;17.00;8.85;;;;;;;30.24;68.14;95138.22;4880673;29;20208;-83
2022/10/25 07:46:46;;;;;;;21.58;8.55;;;;;;;30.30;67.42;95141.69;4879535;29;20441;-87
2022/10/25 07:49:13;;;;;;;18.75;8.85;;;;;;;30.44;66.96;95142.88;4883311;29;20201;-86
2022/10/25 07:51:39;;;;;;;15.25;8.25;;;;;;;30.51;66.29;95139.22;4886819;29;20212;-83
2022/10/25 07:54:07;;;;;;;18.17;8.43;;;;;;;30.45;66.36;95141.03;4892506;29;20201;-83
2022/10/25 07:56:34;;;;;;;12.18;7.82;;;;;;;30.25;67.05;95131.09;4869768;29;20216;-85
2022/10/25 07:59:00;;;;;;;19.27;8.82;;;;;;;30.11;66.33;95133.31;4889758;29;20280;-81
2022/10/25 08:01:29;;;;;;;17.45;9.75;;;;;;;29.89;66.23;95116.72;4880866;29;20216;-86
2022/10/25 08:03:56;;;;;;;24.75;9.95;;;;;;;29.71;65.53;95131.84;4878542;29;20205;-87
2022/10/25 08:06:24;;;;;;;20.58;9.60;;;;;;;29.46;65.57;95123.59;4878426;29;20232;-82
2022/10/25 08:08:51;;;;;;;23.65;9.43;;;;;;;29.18;65.80;95121.91;4878424;29;20189;-83
2022/10/25 08:11:18;;;;;;;15.88;8.82;;;;;;;28.89;65.74;95121.25;4879181;29;20769;-83
2022/10/25 08:13:49;;;;;;;20.23;10.00;;;;;;;28.61;65.87;95122.13;4879135;29;20575;-86
2022/10/25 08:16:16;;;;;;;19.25;9.38;;;;;;;28.41;66.33;95123.41;4879942;29;20197;-87
2022/10/25 08:18:44;;;;;;;19.77;9.68;;;;;;;28.18;66.41;95124.31;4879591;29;20204;-85
2022/10/25 08:21:11;;;;;;;17.60;8.82;;;;;;;27.89;66.79;95112.22;4878769;29;20437;-83
2022/10/25 08:23:38;;;;;;;23.45;10.77;;;;;;;27.69;66.76;95107.34;4877055;29;20205;-83
2022/10/25 08:26:05;;;;;;;23.42;10.90;;;;;;;27.54;66.53;95110.47;4876562;29;20239;-81
2022/10/25 08:28:32;;;;;;;22.33;10.45;;;;;;;27.26;65.83;95106.00;4877684;29;20193;-82
2022/10/25 08:30:59;;;;;;;22.25;10.25;;;;;;;27.15;66.10;95112.06;4876333;29;20201;-80
2022/10/25 08:33:26;;;;;;;22.15;10.50;;;;;;;26.96;66.38;95112.16;4876732;29;20232;-83
2022/10/25 08:35:54;;;;;;;27.75;11.25;;;;;;;26.81;66.38;95119.69;4877125;29;20201;-83
2022/10/25 08:38:21;;;;;;;18.67;10.32;;;;;;;26.64;66.55;95122.22;4876830;29;20264;-84
2022/10/25 08:40:57;;;;;;;25.80;11.98;;;;;;;26.40;66.26;95094.31;4876917;29;20205;-81
2022/10/25 08:43:49;;;;;;;21.15;10.40;;;;;;;26.34;66.42;95105.69;4878560;29;20768;-81
2022/10/25 08:46:20;;;;;;;28.52;12.50;;;;;;;26.19;66.69;95100.91;4879269;29;20221;-85
2022/10/25 08:49:02;;;;;;;20.73;11.27;;;;;;;26.00;66.59;95089.69;4881058;29;20217;-81
2022/10/25 08:51:35;;;;;;;23.23;11.43;;;;;;;25.92;66.71;95093.41;4883435;29;20708;-82
2022/10/25 08:54:08;;;;;;;22.83;10.27;;;;;;;25.81;67.15;95091.56;4884157;29;20201;-82
2022/10/25 08:56:35;;;;;;;20.33;10.48;;;;;;;25.71;66.99;95092.06;4881640;29;20208;-87
2022/10/25 08:59:03;;;;;;;20.70;10.73;;;;;;;25.61;67.42;95088.38;4882242;29;20189;-86
2022/10/25 09:01:38;;;;;;;20.60;9.82;;;;;;;25.50;67.12;95080.25;4881921;29;20201;-86
2022/10/25 09:04:05;;;;;;;21.42;9.57;;;;;;;25.47;67.07;95085.91;4881406;29;20567;-84
2022/10/25 09:06:38;;;;;;;25.92;10.52;;;;;;;25.39;67.20;95083.63;4879841;29;20225;-86
2022/10/25 09:09:23;;;;;;;23.58;9.00;;;;;;;25.30;66.98;95076.25;4880437;29;20650;-85
2022/10/25 09:12:04;;;;;;;22.35;8.65;;;;;;;25.23;67.27;95073.75;4879408;29;20193;-85
2022/10/25 09:14:42;;;;;;;18.85;8.52;;;;;;;25.17;67.66;95077.22;4879971;29;20260;-83
2022/10/25 09:17:17;;;;;;;22.33;9.68;;;;;;;24.87;67.59;95037.84;4879790;29;20193;-81
2022/10/25 09:20:00;;;;;;;21.30;10.25;;;;;;;24.86;67.68;95041.50;4880430;29;20197;-84
2022/10/25 09:22:30;;;;;;;16.80;9.02;;;;;;;24.93;68.06;95063.97;4879940;29;20596;-81
2022/10/25 09:25:01;;;;;;;15.65;8.80;;;;;;;24.96;67.39;95084.47;4885541;29;20201;-83
2022/10/25 09:27:34;;;;;;;18.60;9.00;;;;;;;24.86;67.44;95071.06;4891949;29;20229;-83
2022/10/25 09:30:04;;;;;;;21.48;9.13;;;;;;;24.91;67.89;95078.28;4881708;29;20804;-81
2022/10/25 09:32:36;;;;;;;23.10;8.50;;;;;;;24.85;67.71;95068.69;4881559;29;20707;-84
2022/10/25 09:35:05;;;;;;;18.38;9.02;;;;;;;24.87;67.52;95069.25;4879791;29;20189;-84
2022/10/25 09:37:38;;;;;;;15.40;8.82;;;;;;;24.81;67.76;95060.47;4881585;29;20212;-85
2022/10/25 09:40:12;;;;;;;19.67;9.57;;;;;;;24.77;67.46;95059.31;4881384;29;20189;-86
2022/10/25 09:42:43;;;;;;;20.02;8.38;;;;;;;24.65;67.63;95043.50;4879659;29;20665;-83
2022/10/25 09:45:20;;;;;;;21.00;9.00;;;;;;;24.78;67.76;95060.88;4878643;29;20295;-81
2022/10/25 09:47:54;;;;;;;23.60;8.82;;;;;;;24.75;67.13;95048.25;4879280;29;20247;-85
2022/10/25 09:50:26;;;;;;;21.73;9.13;;;;;;;24.74;67.35;95049.25;4881193;29;20201;-84
2022/10/25 09:53:07;;;;;;;19.40;8.43;;;;;;;24.61;67.27;95031.91;4882177;29;20287;-86
2022/10/25 09:55:38;;;;;;;17.98;8.80;;;;;;;24.68;67.87;95047.53;4879888;29;20199;-84
2022/10/25 09:58:06;;;;;;;19.00;8.50;;;;;;;24.65;67.88;95050.56;4884510;29;20211;-83
2022/10/25 10:00:38;;;;;;;20.60;9.13;;;;;;;24.59;68.23;95033.13;4889371;29;20284;-84
2022/10/25 10:03:05;;;;;;;17.20;8.52;;;;;;;24.60;68.07;95032.91;4883216;29;20186;-81
2022/10/25 10:05:32;;;;;;;14.30;8.98;;;;;;;24.57;68.12;95032.53;4880002;29;20189;-82
2022/10/25 10:08:00;;;;;;;19.60;8.93;;;;;;;24.55;68.94;95027.53;4880675;29;20217;-87
2022/10/25 10:10:34;;;;;;;19.38;9.02;;;;;;;24.48;68.71;95014.53;4879502;29;20248;-84
2022/10/25 10:13:06;;;;;;;16.38;7.97;;;;;;;24.45;68.89;95017.56;4880906;29;20205;-83
2022/10/25 10:15:38;;;;;;;18.50;8.57;;;;;;;24.46;69.22;95013.13;4880971;29;20197;-85
2022/10/25 10:18:22;;;;;;;17.35;8.40;;;;;;;24.22;69.51;94981.56;4881030;29;20201;-79
2022/10/25 10:20:58;;;;;;;15.52;7.75;;;;;;;24.35;69.67;95000.72;4893020;29;20196;-84
2022/10/25 10:23:28;;;;;;;13.48;8.07;;;;;;;24.30;69.77;95001.38;4901093;29;20200;-85
2022/10/25 10:25:56;;;;;;;15.35;7.40;;;;;;;24.33;69.96;95002.78;4902538;29;20196;-82
2022/10/25 10:28:23;;;;;;;15.68;7.63;;;;;;;24.29;70.13;95000.59;4905264;29;20227;-84
2022/10/25 10:30:54;;;;;;;11.45;7.80;;;;;;;24.26;70.54;95001.00;4906466;29;20197;-82
2022/10/25 10:33:22;;;;;;;15.05;8.45;;;;;;;24.16;70.76;94973.78;4901273;29;20197;-83
2022/10/25 10:35:53;;;;;;;15.60;7.82;;;;;;;24.21;70.87;94982.56;4903022;29;20212;-82
2022/10/25 10:38:23;;;;;;;19.00;8.38;;;;;;;24.19;70.93;94986.41;4901995;29;20212;-83
2022/10/25 10:40:53;;;;;;;18.77;7.43;;;;;;;24.17;71.10;94975.38;4905302;29;20189;-79
2022/10/25 10:43:29;;;;;;;13.88;8.05;;;;;;;23.91;71.51;94938.00;4904784;29;20198;-80
2022/10/25 10:46:04;;;;;;;13.65;7.22;;;;;;;24.15;71.72;94975.59;4904724;29;20200;-79
2022/10/25 10:48:34;;;;;;;14.75;8.23;;;;;;;24.13;71.61;94967.16;4904350;29;20229;-82
2022/10/25 10:51:01;;;;;;;14.60;7.35;;;;;;;23.99;71.90;94948.19;4903764;29;20212;-82
2022/10/25 10:53:31;;;;;;;12.02;7.57;;;;;;;24.06;71.96;94957.78;4902072;29;20251;-82
2022/10/25 10:56:01;;;;;;;23.65;7.97;;;;;;;24.04;72.16;94950.94;4903131;29;20202;-83
2022/10/25 10:58:31;;;;;;;17.02;7.82;;;;;;;24.09;72.65;94963.38;4900387;29;20665;-82
2022/10/25 11:01:00;;;;;;;14.48;8.05;;;;;;;24.09;72.23;94960.75;4900921;29;20196;-81
2022/10/25 11:03:44;;;;;;;13.60;7.55;;;;;;;24.05;72.51;94946.53;4899307;29;20291;-81
2022/10/25 11:06:13;;;;;;;23.50;8.52;;;;;;;24.11;72.46;94944.88;4901741;29;20543;-81
2022/10/25 11:08:41;;;;;;;13.95;8.00;;;;;;;24.11;72.15;94945.66;4898040;29;20231;-81
2022/10/25 11:11:18;;;;;;;13.35;7.90;;;;;;;24.14;72.20;94942.63;4897749;29;20232;-80
2022/10/25 11:13:52;;;;;;;14.85;7.70;;;;;;;24.12;72.02;94936.81;4897413;29;20244;-85
2022/10/25 11:16:39;;;;;;;17.67;7.95;;;;;;;24.19;71.72;94936.75;4897650;29;20580;-83
2022/10/25 11:19:14;;;;;;;19.70;8.05;;;;;;;24.21;71.91;94940.75;4897161;29;20661;-84
2022/10/25 11:22:11;;;;;;;15.57;7.60;;;;;;;24.25;72.08;94931.44;4899873;29;20200;-89
2022/10/25 11:24:48;;;;;;;15.75;7.57;;;;;;;24.09;72.28;94895.41;4896565;29;20679;-86
2022/10/25 11:27:29;;;;;;;14.38;7.07;;;;;;;24.28;72.09;94920.56;4895700;29;20305;-83
2022/10/25 11:30:14;;;;;;;13.63;6.95;;;;;;;24.29;71.44;94918.75;4895561;29;20188;-87
2022/10/25 11:33:16;;;;;;;14.52;7.20;;;;;;;24.40;71.58;94918.06;4896428;29;20200;-86
2022/10/25 11:36:10;;;;;;;12.63;7.78;;;;;;;24.45;71.38;94914.81;4896150;29;20199;-83
2022/10/25 11:38:49;;;;;;;14.20;7.22;;;;;;;24.35;71.25;94883.09;4896009;29;20185;-85